createdAt,value
2022-08-11T00:02:37.245Z,26.80
2022-08-11T00:05:11.773Z,26.90
2022-08-11T00:07:47.446Z,26.90
2022-08-11T00:10:19.059Z,27.00
2022-08-11T00:12:54.621Z,27.10
2022-08-11T00:15:24.366Z,27.00
2022-08-11T00:17:59.101Z,27.00
2022-08-11T00:20:33.661Z,27.00
2022-08-11T00:23:09.353Z,26.90
2022-08-11T00:25:41.231Z,26.80
2022-08-11T00:28:27.141Z,26.60
2022-08-11T00:30:57.906Z,26.70
2022-08-11T00:33:41.098Z,26.70
2022-08-11T00:36:20.851Z,26.60
2022-08-11T00:38:55.278Z,26.70
2022-08-11T00:41:33.955Z,26.70
2022-08-11T00:44:21.219Z,26.70
2022-08-11T00:47:00.928Z,26.70
2022-08-11T00:49:41.177Z,26.60
2022-08-11T00:52:21.428Z,26.60
2022-08-11T00:55:26.212Z,26.60
2022-08-11T00:58:29.359Z,26.60
2022-08-11T01:01:10.927Z,26.70
2022-08-11T01:04:20.729Z,26.70
2022-08-11T01:08:01.765Z,26.80
2022-08-11T01:10:41.986Z,26.60
2022-08-11T01:13:20.476Z,26.60
2022-08-11T01:16:14.425Z,26.60
2022-08-11T01:19:09.268Z,26.50
2022-08-11T01:22:08.453Z,26.60
2022-08-11T01:25:21.839Z,26.60
2022-08-11T01:28:38.855Z,26.60
2022-08-11T01:32:01.478Z,26.60
2022-08-11T01:35:21.145Z,26.60
2022-08-11T01:38:35.223Z,26.50
2022-08-11T01:41:51.579Z,26.50
2022-08-11T01:44:44.639Z,26.50
2022-08-11T01:47:52.910Z,26.20
2022-08-11T01:50:41.904Z,26.20
2022-08-11T01:53:22.879Z,26.30
2022-08-11T01:56:00.958Z,26.30
2022-08-11T01:58:44.190Z,26.50
2022-08-11T02:01:38.785Z,26.30
2022-08-11T02:04:19.835Z,26.30
2022-08-11T02:06:56.751Z,26.30
2022-08-11T02:09:49.618Z,26.30
2022-08-11T02:12:32.489Z,26.40
2022-08-11T02:15:13.304Z,26.40
2022-08-11T02:17:55.109Z,26.30
2022-08-11T02:20:46.011Z,26.40
2022-08-11T02:24:04.056Z,26.30
2022-08-11T02:26:40.862Z,26.40
2022-08-11T02:29:18.568Z,26.30
2022-08-11T02:32:30.136Z,26.30
2022-08-11T02:35:13.631Z,26.30
2022-08-11T02:37:54.806Z,26.30
2022-08-11T02:40:35.855Z,26.20
2022-08-11T02:43:23.654Z,25.90
2022-08-11T02:46:01.304Z,26.00
2022-08-11T02:48:59.179Z,26.10
2022-08-11T02:51:39.331Z,26.00
2022-08-11T02:54:18.575Z,26.00
2022-08-11T02:56:53.426Z,26.00
2022-08-11T02:59:53.847Z,25.90
2022-08-11T03:02:50.387Z,25.90
2022-08-11T03:05:35.184Z,25.80
2022-08-11T03:08:25.540Z,25.80
2022-08-11T03:11:20.438Z,25.80
2022-08-11T03:14:18.436Z,25.80
2022-08-11T03:16:56.508Z,25.80
2022-08-11T03:19:31.885Z,25.90
2022-08-11T03:22:12.021Z,25.60
2022-08-11T03:24:56.330Z,25.80
2022-08-11T03:27:37.039Z,25.80
2022-08-11T03:30:14.969Z,25.70
2022-08-11T03:33:16.098Z,25.90
2022-08-11T03:35:55.902Z,25.80
2022-08-11T03:38:30.785Z,25.90
2022-08-11T03:42:03.165Z,25.70
2022-08-11T03:44:35.661Z,25.80
2022-08-11T03:47:30.258Z,25.70
2022-08-11T03:50:17.193Z,25.70
2022-08-11T03:52:55.138Z,25.60
2022-08-11T03:55:41.372Z,25.60
2022-08-11T03:58:46.357Z,25.50
2022-08-11T04:02:09.162Z,25.50
2022-08-11T04:05:21.621Z,25.50
2022-08-11T04:08:34.267Z,25.60
2022-08-11T04:11:29.464Z,25.50
2022-08-11T04:14:40.655Z,24.90
2022-08-11T04:17:51.532Z,25.10
2022-08-11T04:20:51.158Z,24.90
2022-08-11T04:24:35.193Z,24.90
2022-08-11T04:27:14.281Z,25.00
2022-08-11T04:30:05.479Z,25.00
2022-08-11T04:33:18.268Z,25.10
2022-08-11T04:35:59.529Z,25.30
2022-08-11T04:38:44.539Z,25.10
2022-08-11T04:42:06.252Z,25.10
2022-08-11T04:45:18.536Z,25.00
2022-08-11T04:48:14.841Z,25.00
2022-08-11T04:51:27.167Z,25.10
2022-08-11T04:54:19.912Z,25.20
2022-08-11T04:57:09.161Z,25.00
2022-08-11T05:00:23.307Z,24.90
2022-08-11T05:03:30.721Z,25.10
2022-08-11T05:07:01.540Z,25.10
2022-08-11T05:09:54.729Z,25.20
2022-08-11T05:12:32.573Z,24.90
2022-08-11T05:15:20.157Z,24.90
2022-08-11T05:18:13.729Z,25.00
2022-08-11T05:21:08.905Z,24.90
2022-08-11T05:24:04.996Z,25.10
2022-08-11T05:27:03.344Z,25.00
2022-08-11T05:30:01.343Z,24.90
2022-08-11T05:32:59.333Z,24.80
2022-08-11T05:36:00.069Z,24.80
2022-08-11T05:38:52.852Z,24.80
2022-08-11T05:41:43.444Z,24.80
2022-08-11T05:44:36.764Z,24.80
2022-08-11T05:47:24.137Z,24.90
2022-08-11T05:50:13.411Z,25.20
2022-08-11T05:53:09.124Z,25.30
2022-08-11T05:56:02.200Z,25.40
2022-08-11T05:58:42.629Z,25.40
2022-08-11T06:01:13.562Z,25.60
2022-08-11T06:04:04.660Z,25.70
2022-08-11T06:06:34.014Z,25.80
2022-08-11T06:09:04.705Z,25.60
2022-08-11T06:11:44.012Z,25.50
2022-08-11T06:14:17.168Z,25.50
2022-08-11T06:16:49.874Z,25.70
2022-08-11T06:19:23.300Z,25.80
2022-08-11T06:21:54.364Z,25.80
2022-08-11T06:24:23.503Z,25.90
2022-08-11T06:27:11.742Z,25.90
2022-08-11T06:29:55.123Z,26.00
2022-08-11T06:32:30.103Z,26.00
2022-08-11T06:35:16.193Z,26.30
2022-08-11T06:37:58.652Z,26.50
2022-08-11T06:40:37.137Z,26.50
2022-08-11T06:43:17.638Z,26.60
2022-08-11T06:45:56.890Z,26.50
2022-08-11T06:48:27.227Z,26.80
2022-08-11T06:51:15.122Z,26.70
2022-08-11T06:54:03.302Z,26.60
2022-08-11T06:57:29.430Z,26.80
2022-08-11T07:00:17.283Z,26.80
2022-08-11T07:02:53.587Z,26.80
2022-08-11T07:05:28.679Z,26.90
2022-08-11T07:09:04.450Z,27.00
2022-08-11T07:12:19.121Z,27.10
2022-08-11T07:15:10.542Z,27.10
2022-08-11T07:17:50.003Z,27.40
2022-08-11T07:20:38.081Z,27.40
2022-08-11T07:23:28.694Z,27.40
2022-08-11T07:26:18.376Z,27.50
2022-08-11T07:28:59.380Z,27.70
2022-08-11T07:31:37.373Z,27.80
2022-08-11T07:34:19.759Z,27.90
2022-08-11T07:36:53.689Z,27.70
2022-08-11T07:39:24.308Z,27.70
2022-08-11T07:41:55.040Z,27.70
2022-08-11T07:44:32.144Z,27.80
2022-08-11T07:47:21.181Z,27.70
2022-08-11T07:50:10.730Z,28.00
2022-08-11T07:52:41.897Z,28.10
2022-08-11T07:55:16.422Z,28.50
2022-08-11T07:58:19.227Z,28.60
2022-08-11T08:01:10.409Z,28.90
2022-08-11T08:04:03.067Z,28.70
2022-08-11T08:06:52.226Z,28.70
2022-08-11T08:09:41.190Z,28.50
2022-08-11T08:12:28.331Z,28.40
2022-08-11T08:15:15.820Z,28.20
2022-08-11T08:18:21.037Z,28.10
2022-08-11T08:20:46.138Z,28.10
2022-08-11T08:23:16.118Z,28.20
2022-08-11T08:25:48.683Z,28.50
2022-08-11T08:28:20.920Z,28.50
2022-08-11T08:30:51.939Z,28.60
2022-08-11T08:33:26.718Z,28.60
2022-08-11T08:36:12.158Z,28.80
2022-08-11T08:38:43.163Z,28.60
2022-08-11T08:41:16.618Z,28.70
2022-08-11T08:43:50.178Z,28.80
2022-08-11T08:46:23.662Z,28.80
2022-08-11T08:48:53.431Z,28.90
2022-08-11T08:52:01.019Z,28.80
2022-08-11T08:54:30.390Z,29.00
2022-08-11T08:57:05.433Z,28.90
2022-08-11T08:59:48.511Z,29.00
2022-08-11T09:02:33.602Z,29.00
2022-08-11T09:05:04.662Z,28.80
2022-08-11T09:07:39.742Z,29.00
2022-08-11T09:10:12.314Z,29.30
2022-08-11T09:12:43.944Z,29.30
2022-08-11T09:15:15.222Z,29.20
2022-08-11T09:17:51.755Z,29.40
2022-08-11T09:20:22.977Z,29.40
2022-08-11T09:24:06.423Z,29.60
2022-08-11T09:26:19.368Z,29.50
2022-08-11T09:28:50.387Z,29.80
2022-08-11T09:31:21.505Z,29.60
2022-08-11T09:33:55.590Z,29.80
2022-08-11T09:36:41.797Z,29.60
2022-08-11T09:39:31.485Z,29.50
2022-08-11T09:42:03.043Z,29.60
2022-08-11T09:44:48.974Z,29.30
2022-08-11T09:47:26.868Z,29.80
2022-08-11T09:50:00.804Z,30.30
2022-08-11T09:52:33.606Z,30.30
2022-08-11T09:55:11.179Z,30.50
2022-08-11T09:57:59.043Z,30.20
2022-08-11T10:00:33.574Z,30.00
2022-08-11T10:03:06.386Z,29.90
2022-08-11T10:05:53.332Z,29.60
2022-08-11T10:08:24.398Z,29.80
2022-08-11T10:10:53.507Z,30.00
2022-08-11T10:14:31.006Z,29.60
2022-08-11T10:16:18.187Z,29.40
2022-08-11T10:18:53.715Z,29.20
2022-08-11T10:21:40.119Z,29.00
2022-08-11T10:24:28.186Z,29.10
2022-08-11T10:27:00.063Z,29.70
2022-08-11T10:29:51.109Z,29.90
2022-08-11T10:32:57.533Z,30.10
2022-08-11T10:35:30.030Z,30.40
2022-08-11T10:38:07.858Z,30.60
2022-08-11T10:40:40.519Z,30.70
2022-08-11T10:43:14.330Z,30.70
2022-08-11T10:46:05.458Z,30.50
2022-08-11T10:48:39.278Z,30.60
2022-08-11T10:51:15.454Z,31.10
2022-08-11T10:54:21.861Z,31.10
2022-08-11T10:57:07.962Z,31.10
2022-08-11T10:59:37.123Z,31.00
2022-08-11T11:02:06.554Z,31.40
2022-08-11T11:04:58.636Z,31.50
2022-08-11T11:07:44.120Z,31.50
2022-08-11T11:10:13.863Z,31.30
2022-08-11T11:13:12.968Z,31.50
2022-08-11T11:16:03.408Z,31.70
2022-08-11T11:18:37.109Z,31.90
2022-08-11T11:21:09.441Z,32.10
2022-08-11T11:23:47.625Z,32.00
2022-08-11T11:26:38.906Z,31.90
2022-08-11T11:29:41.049Z,31.80
2022-08-11T11:32:25.410Z,32.00
2022-08-11T11:35:20.666Z,32.50
2022-08-11T11:38:03.514Z,32.40
2022-08-11T11:40:35.235Z,32.70
2022-08-11T11:43:04.494Z,32.70
2022-08-11T11:45:33.882Z,32.70
2022-08-11T11:48:03.662Z,32.60
2022-08-11T11:50:36.137Z,32.90
2022-08-11T11:53:08.935Z,33.10
2022-08-11T11:55:38.751Z,33.10
2022-08-11T11:58:25.916Z,32.60
2022-08-11T12:01:13.404Z,32.80
2022-08-11T12:03:43.438Z,33.00
2022-08-11T12:06:15.809Z,33.30
2022-08-11T12:08:49.557Z,33.20
2022-08-11T12:11:37.851Z,33.20
2022-08-11T12:14:10.427Z,33.20
2022-08-11T12:16:42.039Z,33.70
2022-08-11T12:19:13.159Z,33.10
2022-08-11T12:22:04.329Z,33.70
2022-08-11T12:24:54.189Z,33.70
2022-08-11T12:27:25.707Z,33.50
2022-08-11T12:29:58.667Z,32.80
2022-08-11T12:32:30.414Z,33.70
2022-08-11T12:34:59.796Z,34.30
2022-08-11T12:37:32.561Z,34.30
2022-08-11T12:40:42.471Z,34.20
2022-08-11T12:43:38.872Z,34.60
2022-08-11T12:46:14.103Z,34.60
2022-08-11T12:49:04.426Z,34.00
2022-08-11T12:52:11.465Z,34.20
2022-08-11T12:54:52.051Z,34.30
2022-08-11T12:57:52.181Z,34.50
2022-08-11T13:00:39.613Z,35.00
2022-08-11T13:03:30.172Z,34.80
2022-08-11T13:06:02.881Z,34.40
2022-08-11T13:08:35.938Z,35.00
2022-08-11T13:11:23.147Z,34.50
2022-08-11T13:13:57.956Z,35.00
2022-08-11T13:16:31.019Z,34.90
2022-08-11T13:19:02.032Z,34.80
2022-08-11T13:21:31.785Z,35.10
2022-08-11T13:24:03.510Z,35.60
2022-08-11T13:26:43.363Z,35.80
2022-08-11T13:29:36.258Z,35.40
2022-08-11T13:32:05.975Z,35.80
2022-08-11T13:34:41.833Z,36.20
2022-08-11T13:37:14.534Z,35.30
2022-08-11T13:39:47.530Z,35.50
2022-08-11T13:42:20.382Z,35.90
2022-08-11T13:44:51.879Z,35.90
2022-08-11T13:47:23.830Z,36.40
2022-08-11T13:49:54.241Z,36.10
2022-08-11T13:52:23.552Z,36.40
2022-08-11T13:54:53.574Z,36.40
2022-08-11T13:58:07.132Z,35.90
2022-08-11T14:00:27.712Z,35.80
2022-08-11T14:02:58.546Z,36.10
2022-08-11T14:05:30.255Z,36.20
2022-08-11T14:08:03.400Z,36.40
2022-08-11T14:10:35.284Z,36.50
2022-08-11T14:13:26.866Z,36.60
2022-08-11T14:16:02.277Z,36.00
2022-08-11T14:18:33.286Z,36.80
2022-08-11T14:21:22.624Z,36.90
2022-08-11T14:23:55.177Z,35.90
2022-08-11T14:26:26.550Z,36.30
2022-08-11T14:28:57.546Z,36.60
2022-08-11T14:31:29.502Z,36.90
2022-08-11T14:34:02.525Z,37.00
2022-08-11T14:36:34.260Z,37.60
2022-08-11T14:39:07.298Z,37.00
2022-08-11T14:42:10.245Z,37.00
2022-08-11T14:45:02.656Z,37.80
2022-08-11T14:47:37.178Z,37.20
2022-08-11T14:50:11.902Z,37.10
2022-08-11T14:52:47.249Z,37.10
2022-08-11T14:55:34.687Z,37.10
2022-08-11T14:58:04.623Z,37.40
2022-08-11T15:00:35.591Z,36.60
2022-08-11T15:03:13.978Z,37.30
2022-08-11T15:05:57.262Z,37.40
2022-08-11T15:08:47.584Z,37.70
2022-08-11T15:11:38.205Z,37.80
2022-08-11T15:14:09.626Z,37.60
2022-08-11T15:16:59.186Z,37.90
2022-08-11T15:19:41.012Z,38.10
2022-08-11T15:22:29.130Z,37.50
2022-08-11T15:25:00.215Z,37.70
2022-08-11T15:27:48.967Z,37.70
2022-08-11T15:30:35.816Z,37.60
2022-08-11T15:33:25.890Z,36.90
2022-08-11T15:36:15.472Z,37.60
2022-08-11T15:38:55.519Z,38.00
2022-08-11T15:41:54.478Z,37.50
2022-08-11T15:45:02.029Z,37.40
2022-08-11T15:47:38.402Z,37.20
2022-08-11T15:50:12.077Z,37.10
2022-08-11T15:52:55.506Z,36.40
2022-08-11T15:55:25.953Z,36.40
2022-08-11T15:58:13.576Z,37.40
2022-08-11T16:01:04.176Z,37.70
2022-08-11T16:04:08.937Z,38.10
2022-08-11T16:06:47.811Z,37.70
2022-08-11T16:09:27.905Z,37.60
2022-08-11T16:12:04.486Z,37.90
2022-08-11T16:14:57.925Z,37.40
2022-08-11T16:17:32.044Z,36.40
2022-08-11T16:20:02.556Z,37.20
2022-08-11T16:22:39.622Z,37.50
2022-08-11T16:27:02.411Z,37.70
2022-08-11T16:28:04.943Z,37.30
2022-08-11T16:30:35.300Z,36.50
2022-08-11T16:33:49.110Z,36.60
2022-08-11T16:36:13.430Z,36.90
2022-08-11T16:38:42.869Z,37.50
2022-08-11T16:41:15.236Z,39.30
2022-08-11T16:44:04.857Z,35.70
2022-08-11T16:46:51.870Z,34.80
2022-08-11T16:49:32.842Z,35.20
2022-08-11T16:52:05.649Z,35.40
2022-08-11T16:54:35.701Z,35.80
2022-08-11T16:57:22.403Z,35.50
2022-08-11T16:59:57.823Z,35.80
2022-08-11T17:02:51.003Z,34.90
2022-08-11T17:05:54.220Z,33.80
2022-08-11T17:08:57.188Z,33.60
2022-08-11T17:11:47.148Z,33.20
2022-08-11T17:14:35.318Z,32.90
2022-08-11T17:17:07.586Z,32.40
2022-08-11T17:20:42.954Z,32.10
2022-08-11T17:22:50.388Z,31.80
2022-08-11T17:25:20.772Z,31.70
2022-08-11T17:27:52.251Z,31.50
2022-08-11T17:30:23.544Z,31.20
2022-08-11T17:33:11.546Z,31.30
2022-08-11T17:35:44.936Z,31.20
2022-08-11T17:38:18.231Z,31.00
2022-08-11T17:41:02.696Z,31.20
2022-08-11T17:43:49.600Z,31.10
2022-08-11T17:46:38.915Z,31.00
2022-08-11T17:49:09.955Z,31.10
2022-08-11T17:51:57.666Z,31.00
2022-08-11T17:54:45.113Z,30.90
2022-08-11T17:57:33.962Z,30.70
2022-08-11T18:00:05.768Z,30.20
2022-08-11T18:03:16.870Z,30.30
2022-08-11T18:05:49.427Z,29.80
2022-08-11T18:08:38.704Z,29.80
2022-08-11T18:12:06.411Z,29.90
2022-08-11T18:14:34.474Z,30.10
2022-08-11T18:17:21.453Z,29.70
2022-08-11T18:20:09.412Z,29.90
2022-08-11T18:22:59.680Z,30.10
2022-08-11T18:25:49.902Z,29.90
2022-08-11T18:28:40.632Z,29.60
2022-08-11T18:31:30.414Z,29.30
2022-08-11T18:34:20.249Z,29.20
2022-08-11T18:37:21.999Z,29.50
2022-08-11T18:40:15.860Z,29.50
2022-08-11T18:43:05.897Z,29.60
2022-08-11T18:46:06.054Z,29.40
2022-08-11T18:48:55.491Z,29.50
2022-08-11T18:51:43.008Z,29.60
2022-08-11T18:54:32.847Z,29.60
2022-08-11T18:57:21.771Z,29.60
2022-08-11T19:00:11.007Z,29.80
2022-08-11T19:02:59.218Z,29.70
2022-08-11T19:06:36.953Z,29.50
2022-08-11T19:08:58.538Z,29.30
2022-08-11T19:11:48.082Z,29.20
2022-08-11T19:14:37.952Z,29.00
2022-08-11T19:17:44.909Z,29.20
2022-08-11T19:20:34.946Z,29.10
2022-08-11T19:23:22.265Z,29.20
2022-08-11T19:26:08.762Z,29.00
2022-08-11T19:28:59.090Z,29.00
2022-08-11T19:31:46.797Z,29.10
2022-08-11T19:34:36.153Z,29.00
2022-08-11T19:37:25.011Z,29.00
2022-08-11T19:40:13.167Z,29.20
2022-08-11T19:43:01.764Z,29.00
2022-08-11T19:45:52.629Z,28.60
2022-08-11T19:48:40.920Z,28.50
2022-08-11T19:51:28.714Z,28.50
2022-08-11T19:54:16.151Z,28.50
2022-08-11T19:57:04.317Z,28.60
2022-08-11T19:59:52.355Z,28.20
2022-08-11T20:02:40.378Z,27.90
2022-08-11T20:05:27.457Z,28.00
2022-08-11T20:08:15.639Z,28.10
2022-08-11T20:11:07.141Z,28.20
2022-08-11T20:13:56.210Z,28.00
2022-08-11T20:16:44.379Z,28.20
2022-08-11T20:19:56.064Z,28.10
2022-08-11T20:22:43.353Z,28.20
2022-08-11T20:25:30.520Z,28.30
2022-08-11T20:28:16.863Z,28.00
2022-08-11T20:31:04.432Z,28.20
2022-08-11T20:33:52.587Z,28.00
2022-08-11T20:36:41.072Z,28.00
2022-08-11T20:39:28.929Z,27.90
2022-08-11T20:42:17.438Z,27.90
2022-08-11T20:45:04.474Z,28.00
2022-08-11T20:47:59.355Z,28.10
2022-08-11T20:50:47.939Z,28.10
2022-08-11T20:53:39.069Z,28.00
2022-08-11T20:56:28.697Z,28.20
2022-08-11T20:59:18.906Z,28.20
2022-08-11T21:02:09.818Z,28.30
2022-08-11T21:05:00.350Z,28.40
2022-08-11T21:07:57.340Z,28.40
2022-08-11T21:10:51.222Z,28.40
2022-08-11T21:13:41.421Z,28.40
2022-08-11T21:16:30.971Z,28.50
2022-08-11T21:19:56.424Z,28.20
2022-08-11T21:22:36.064Z,28.30
2022-08-11T21:25:26.059Z,28.10
2022-08-11T21:28:17.926Z,28.10
2022-08-11T21:31:05.494Z,28.10
2022-08-11T21:33:52.766Z,27.90
2022-08-11T21:36:40.676Z,27.80
2022-08-11T21:39:28.820Z,27.80
2022-08-11T21:42:16.906Z,28.00
2022-08-11T21:45:06.041Z,28.00
2022-08-11T21:48:00.824Z,28.00
2022-08-11T21:50:47.352Z,27.80
2022-08-11T21:53:34.994Z,27.70
2022-08-11T21:56:27.356Z,27.40
2022-08-11T21:59:16.367Z,27.30
2022-08-11T22:02:06.200Z,27.30
2022-08-11T22:04:55.778Z,27.30
2022-08-11T22:07:42.139Z,27.20
2022-08-11T22:10:41.785Z,27.20
2022-08-11T22:13:30.584Z,27.30
2022-08-11T22:16:17.774Z,27.20
2022-08-11T22:19:07.123Z,27.40
2022-08-11T22:22:01.217Z,27.30
2022-08-11T22:24:51.739Z,27.30
2022-08-11T22:27:38.424Z,27.50
2022-08-11T22:30:26.123Z,27.40
2022-08-11T22:33:15.000Z,27.30
2022-08-11T22:36:04.257Z,27.50
2022-08-11T22:38:53.522Z,27.50
2022-08-11T22:41:41.255Z,27.50
2022-08-11T22:44:27.946Z,27.10
2022-08-11T22:47:18.429Z,27.10
2022-08-11T22:50:08.193Z,27.00
2022-08-11T22:52:56.740Z,27.00
2022-08-11T22:55:44.622Z,27.30
2022-08-11T22:58:32.633Z,26.60
2022-08-11T23:01:19.696Z,26.50
2022-08-11T23:04:06.488Z,26.30
2022-08-11T23:06:54.180Z,26.30
2022-08-11T23:09:42.833Z,26.40
2022-08-11T23:12:29.881Z,26.30
2022-08-11T23:15:18.423Z,26.70
2022-08-11T23:18:05.518Z,26.70
2022-08-11T23:20:56.096Z,26.50
2022-08-11T23:23:43.718Z,26.50
2022-08-11T23:26:31.659Z,26.70
2022-08-11T23:29:18.772Z,26.60
2022-08-11T23:32:06.041Z,26.30
2022-08-11T23:35:04.614Z,26.10
2022-08-11T23:38:04.218Z,26.20
2022-08-11T23:40:50.389Z,26.30
2022-08-11T23:43:42.715Z,26.20
2022-08-11T23:46:29.461Z,26.30
2022-08-11T23:49:21.150Z,26.40
2022-08-11T23:52:08.197Z,26.40
2022-08-11T23:54:55.734Z,26.50
2022-08-11T23:57:48.944Z,26.20
